首页
METAR-TAF:

METAR-TAF

机场 :

倫敦希斯路機場, 英格兰

纬度: 51-29N, 经度: 000-27W, 海拔: 24米

当前天气观测

该预报发布于41分钟前的01:20 UTC
风速5节,风向东北
温度 14°C
湿度 58%
气压 1022 hPa
能见度10公里或以上

METAR: EGLL 310120Z AUTO 05005KT 9999 NCD 14/06 Q1022 NOSIG

时间: 03:01 (02:01 UTC)

预报

该预报发布于3小时和7分钟前的22:54 UTC
预报有效从31日的 00点(UTC)到 01日的 06点(UTC)
风速8节,风向东转东北
能见度10公里或以上
1500米以下无云,无积雨云
几率 30% :
短暂存在
从 31日的 11点(UTC)到 31日的 19点(UTC)
风速15节,风向,有时为25节阵风

TAF: EGLL 302254Z 3100/0106 06008KT CAVOK PROB30 TEMPO 3111/3119 08015G25KT

超过4000个机场的气象观测和天气预报(METAR&TAF报告)。

可查询的气象台以黄色和红色小点在地图上表示。

将鼠标移到小点上方,可查看气象台名称。

然后点击查看天气观测和预报。

如需切换地图:点击带黑十字的绿色按钮放大地图;点击带横线的绿色按钮缩小地图;或者点击绿色箭头查看邻近地区的地图。


METAR-TAF: